Time;durP1;ratioP1;P1;durP2;ratioP2;P2;SDS_P1;SDS_P2;PMS_P1;PMS_P2;Temp;Humidity;BMP_temperature;BMP_pressure;BME280_temperature;BME280_humidity;BME280_pressure;Samples;Min_cycle;Max_cycle;Signal;HPM_P1;HPM_P2
2022/05/05 00:01:13;;;;;;;3.27;2.50;;;13.70;84.30;;;;;;12796796;23;20509;-80
2022/05/05 00:06:16;;;;;;;3.40;3.00;;;14.50;80.60;;;;;;12791159;23;20569;-80
2022/05/05 00:16:39;;;;;;;6.20;4.07;;;14.30;77.30;;;;;;12791745;23;20554;-80
2022/05/05 00:21:42;;;;;;;3.30;2.97;;;13.70;79.10;;;;;;12792223;23;20217;-80
2022/05/05 00:26:45;;;;;;;2.97;2.67;;;14.70;79.00;;;;;;12783807;23;20498;-80
2022/05/05 00:31:48;;;;;;;7.20;4.90;;;15.20;77.40;;;;;;12794393;23;20493;-80
2022/05/05 00:36:51;;;;;;;4.63;4.10;;;15.40;75.30;;;;;;12739721;23;20179;-80
2022/05/05 00:41:54;;;;;;;3.20;2.43;;;14.90;77.40;;;;;;12791600;23;20172;-80
2022/05/05 00:46:57;;;;;;;3.20;2.90;;;15.30;76.50;;;;;;12791211;23;20229;-80
2022/05/05 00:52:00;;;;;;;3.27;2.97;;;15.90;74.90;;;;;;12812684;23;20167;-80
2022/05/05 00:57:03;;;;;;;3.77;3.37;;;16.10;73.80;;;;;;12795225;23;20198;-80
2022/05/05 01:02:06;;;;;;;3.13;2.57;;;16.00;73.60;;;;;;12766953;23;20186;-80
2022/05/05 01:07:09;;;;;;;6.63;2.73;;;16.10;73.50;;;;;;12812534;23;20255;-80
2022/05/05 01:12:11;;;;;;;3.60;2.70;;;15.90;73.90;;;;;;12806974;23;20192;-80
2022/05/05 01:17:14;;;;;;;5.13;3.00;;;15.90;73.80;;;;;;12768162;23;20530;-80
2022/05/05 01:22:18;;;;;;;6.57;4.53;;;;;;;;;;12812211;23;20863;-80
2022/05/05 01:32:42;;;;;;;5.80;4.00;;;15.80;73.90;;;;;;12810530;23;20202;-80
2022/05/05 01:37:45;;;;;;;3.90;3.60;;;15.30;74.50;;;;;;12767689;23;20176;-80
2022/05/05 01:42:48;;;;;;;3.07;2.80;;;15.20;75.30;;;;;;12793553;23;20171;-80
2022/05/05 01:47:50;;;;;;;3.70;3.20;;;15.50;74.90;;;;;;12811859;23;20245;-80
2022/05/05 01:52:53;;;;;;;3.07;2.80;;;15.70;74.10;;;;;;12792771;23;20214;-80
2022/05/05 01:57:57;;;;;;;3.37;2.90;;;15.90;73.90;;;;;;12793340;23;20172;-80
2022/05/05 02:03:01;;;;;;;3.70;2.97;;;15.90;73.40;;;;;;12741201;23;20175;-80
2022/05/05 02:08:04;;;;;;;7.00;4.67;;;15.90;73.20;;;;;;12793412;23;20249;-80
2022/05/05 02:13:07;;;;;;;5.67;4.07;;;15.20;73.30;;;;;;12804798;23;20188;-80
2022/05/05 02:18:12;;;;;;;9.57;6.77;;;14.60;76.40;;;;;;12766800;23;20171;-80
2022/05/05 02:23:15;;;;;;;4.23;3.83;;;11.50;78.50;;;;;;12809583;23;20176;-80
2022/05/05 02:28:18;;;;;;;9.50;3.70;;;11.70;86.50;;;;;;12792060;23;20214;-80
2022/05/05 02:33:21;;;;;;;3.77;3.20;;;13.90;80.50;;;;;;12766516;23;20554;-80
2022/05/05 02:43:44;;;;;;;7.10;4.67;;;15.00;76.80;;;;;;12807461;23;20222;-80
2022/05/05 02:48:47;;;;;;;3.47;3.17;;;14.90;75.80;;;;;;12792526;23;20191;-80
2022/05/05 02:59:10;;;;;;;5.30;3.70;;;15.00;76.00;;;;;;12789610;23;20179;-80
2022/05/05 03:04:13;;;;;;;5.33;3.77;;;15.40;75.40;;;;;;12792767;23;20168;-80
2022/05/05 03:09:15;;;;;;;9.43;5.33;;;15.50;74.40;;;;;;12764911;23;20630;-80
2022/05/05 03:14:18;;;;;;;5.27;4.10;;;15.30;73.70;;;;;;12791064;23;20187;-80
2022/05/05 03:19:20;;;;;;;5.53;4.17;;;15.10;75.20;;;;;;12765737;23;20164;-80
2022/05/05 03:24:23;;;;;;;8.30;4.37;;;15.30;74.90;;;;;;12792119;23;20167;-80
2022/05/05 03:29:25;;;;;;;2.67;2.43;;;15.40;74.80;;;;;;12792209;23;20172;-81
2022/05/05 03:34:28;;;;;;;4.00;3.27;;;15.40;74.80;;;;;;12792613;23;20167;-80
2022/05/05 03:39:30;;;;;;;4.27;3.87;;;15.80;73.70;;;;;;12809667;23;20226;-80
2022/05/05 03:44:33;;;;;;;3.27;2.90;;;15.80;73.10;;;;;;12791083;23;20203;-80
2022/05/05 03:49:35;;;;;;;4.87;3.77;;;15.90;73.20;;;;;;12764793;23;20234;-80
2022/05/05 03:54:38;;;;;;;3.50;3.20;;;16.00;72.50;;;;;;12791480;23;20221;-80
2022/05/05 03:59:42;;;;;;;3.83;3.07;;;15.90;73.20;;;;;;12764511;23;20499;-81
2022/05/05 04:04:44;;;;;;;2.90;2.67;;;16.20;72.30;;;;;;12791553;23;20565;-81
2022/05/05 04:09:47;;;;;;;3.57;2.67;;;16.40;71.70;;;;;;12763952;23;20176;-80
2022/05/05 04:14:49;;;;;;;4.40;2.83;;;16.70;70.70;;;;;;12791350;23;20582;-81
2022/05/05 04:19:52;;;;;;;3.33;3.03;;;16.80;70.10;;;;;;12791711;23;20167;-80
2022/05/05 04:24:55;;;;;;;4.50;3.50;;;16.90;69.90;;;;;;12767610;23;20246;-80
2022/05/05 04:29:58;;;;;;;20.33;9.63;;;16.40;70.90;;;;;;12768073;23;20246;-80
2022/05/05 04:35:01;;;;;;;13.40;8.40;;;16.30;70.00;;;;;;12768929;23;20179;-81
2022/05/05 04:40:04;;;;;;;4.40;3.83;;;14.80;74.30;;;;;;12797383;23;20168;-80
2022/05/05 04:45:07;;;;;;;4.37;2.93;;;14.10;78.00;;;;;;12796756;23;20206;-80
2022/05/05 04:50:16;;;;;;;3.70;3.00;;;15.40;74.70;;;;;;12814174;23;20168;-81
2022/05/05 04:55:19;;;;;;;4.13;3.73;;;16.00;72.70;;;;;;12797123;23;20167;-81
2022/05/05 05:00:22;;;;;;;4.70;3.67;;;16.10;72.10;;;;;;12770815;23;20276;-81
2022/05/05 05:05:25;;;;;;;13.40;8.53;;;16.20;72.00;;;;;;12796716;23;20584;-81
2022/05/05 05:10:27;;;;;;;11.70;4.97;;;16.10;71.10;;;;;;12796828;23;20164;-80
2022/05/05 05:15:31;;;;;;;3.63;3.33;;;16.50;71.20;;;;;;12808640;23;20515;-81
2022/05/05 05:20:34;;;;;;;9.50;5.77;;;16.70;70.50;;;;;;12802201;23;20553;-81
2022/05/05 05:25:36;;;;;;;10.77;6.40;;;16.60;69.90;;;;;;12802570;23;20211;-80
2022/05/05 05:30:41;;;;;;;9.57;6.20;;;16.80;69.10;;;;;;12802065;23;20550;-81
2022/05/05 05:35:47;;;;;;;11.53;5.50;;;16.80;69.30;;;;;;12807716;23;20172;-81
2022/05/05 05:40:49;;;;;;;9.07;7.00;;;16.80;69.30;;;;;;12872813;23;20239;-81
2022/05/05 05:45:52;;;;;;;10.20;6.87;;;16.50;69.80;;;;;;12830612;23;20194;-80
2022/05/05 05:50:58;;;;;;;10.97;6.97;;;16.60;70.10;;;;;;12829773;23;20196;-81
2022/05/05 05:56:13;;;;;;;15.93;9.20;;;16.40;70.10;;;;;;12873246;23;20227;-81
2022/05/05 06:03:53;;;;;;;6.83;4.30;;;16.40;70.30;;;;;;12861992;23;20204;-81
2022/05/05 06:06:44;;;;;;;6.90;4.00;;;16.30;70.80;;;;;;12829362;23;20247;-81
2022/05/05 06:11:47;;;;;;;4.40;3.80;;;16.60;70.10;;;;;;12830213;23;20227;-81
2022/05/05 06:16:49;;;;;;;7.20;5.27;;;16.90;69.30;;;;;;12856324;23;20215;-81
2022/05/05 06:21:52;;;;;;;5.70;4.47;;;17.10;68.80;;;;;;12830832;23;20203;-81
2022/05/05 06:26:54;;;;;;;4.93;3.77;;;17.30;68.40;;;;;;12856216;23;20231;-80
2022/05/05 06:31:56;;;;;;;6.07;4.67;;;17.20;68.30;;;;;;12829755;23;20148;-80
2022/05/05 06:36:59;;;;;;;23.93;9.20;;;17.10;69.30;;;;;;12855800;23;20224;-80
2022/05/05 06:42:02;;;;;;;26.63;11.23;;;17.00;69.30;;;;;;12829557;23;20219;-81
2022/05/05 06:47:04;;;;;;;5.67;3.93;;;17.20;69.00;;;;;;12854544;23;20300;-80
2022/05/05 06:52:07;;;;;;;18.80;12.13;;;17.30;68.50;;;;;;12853717;23;20251;-80
2022/05/05 06:57:31;;;;;;;7.83;4.33;;;17.30;69.40;;;;;;12854455;23;20211;-80
2022/05/05 07:02:34;;;;;;;15.93;8.50;;;17.30;68.80;;;;;;12854665;23;20207;-80
2022/05/05 07:07:36;;;;;;;7.40;4.77;;;17.30;69.00;;;;;;12834425;23;20604;-79
2022/05/05 07:12:39;;;;;;;8.07;5.17;;;17.70;67.70;;;;;;12809311;23;20530;-80
2022/05/05 07:17:41;;;;;;;3.90;3.50;;;17.70;67.60;;;;;;12812171;23;20175;-80
2022/05/05 07:22:44;;;;;;;30.37;11.87;;;17.90;66.80;;;;;;12788160;23;20226;-81
2022/05/05 07:27:46;;;;;;;5.93;4.83;;;17.80;70.00;;;;;;12817525;23;20196;-81
2022/05/05 07:32:49;;;;;;;7.67;4.90;;;18.00;67.80;;;;;;12820956;23;20168;-80
2022/05/05 07:37:51;;;;;;;4.00;3.50;;;18.10;66.70;;;;;;12817033;23;20195;-80
2022/05/05 07:42:54;;;;;;;12.23;8.50;;;18.10;66.60;;;;;;12790147;23;20183;-81
2022/05/05 07:48:00;;;;;;;11.87;7.43;;;18.30;66.70;;;;;;12791598;23;20195;-80
2022/05/05 07:53:03;;;;;;;19.07;11.03;;;18.30;67.80;;;;;;12812951;23;20168;-80
2022/05/05 07:58:06;;;;;;;4.30;3.87;;;18.20;68.10;;;;;;12814446;23;20167;-80
2022/05/05 08:03:09;;;;;;;8.57;7.27;;;18.40;65.70;;;;;;12833647;23;20168;-81
2022/05/05 08:08:11;;;;;;;4.43;3.97;;;18.50;68.20;;;;;;12789433;23;20543;-80
2022/05/05 08:13:14;;;;;;;6.50;4.97;;;18.50;65.30;;;;;;12817738;23;20306;-81
2022/05/05 08:18:16;;;;;;;17.20;11.00;;;18.60;68.00;;;;;;12806516;23;20191;-80
2022/05/05 08:23:19;;;;;;;10.50;6.27;;;18.60;68.60;;;;;;12772408;23;20191;-80
2022/05/05 08:28:33;;;;;;;6.40;4.67;;;18.70;66.30;;;;;;12798053;23;20254;-81
2022/05/05 08:33:36;;;;;;;4.53;3.73;;;18.80;64.90;;;;;;12771155;23;20164;-82
2022/05/05 08:38:38;;;;;;;41.63;11.10;;;18.80;64.50;;;;;;12818117;23;20191;-96
2022/05/05 08:43:52;;;;;;;14.23;10.53;;;19.10;69.40;;;;;;12741300;23;20212;-80
2022/05/05 08:49:06;;;;;;;18.10;10.53;;;19.30;69.40;;;;;;12763329;23;20256;-80
2022/05/05 08:54:12;;;;;;;25.07;9.43;;;19.30;68.20;;;;;;12790108;23;20168;-78
2022/05/05 08:59:20;;;;;;;25.63;8.10;;;19.60;66.00;;;;;;12806246;23;20176;-79
2022/05/05 09:04:23;;;;;;;21.90;6.77;;;19.60;65.70;;;;;;12808605;23;20176;-79
2022/05/05 09:09:29;;;;;;;16.80;6.67;;;19.70;65.70;;;;;;12765119;23;20589;-79
2022/05/05 09:14:36;;;;;;;9.77;5.63;;;20.00;63.50;;;;;;12766111;23;20584;-79
2022/05/05 09:19:44;;;;;;;7.90;6.70;;;20.00;64.70;;;;;;12794100;23;20226;-79
2022/05/05 09:24:51;;;;;;;7.00;4.80;;;20.20;62.50;;;;;;12812361;23;20634;-78
2022/05/05 09:30:02;;;;;;;7.50;6.17;;;20.30;63.00;;;;;;12779636;23;20188;-78
2022/05/05 09:35:09;;;;;;;12.52;6.05;;;20.30;61.30;;;;;;12810211;23;20167;-78
2022/05/05 09:40:13;;;;;;;15.15;6.22;;;20.40;59.50;;;;;;12767645;23;20247;-78
2022/05/05 09:45:30;;;;;;;18.93;5.87;;;20.50;62.40;;;;;;12792071;23;20567;-79
2022/05/05 09:50:34;;;;;;;6.05;4.22;;;20.60;60.60;;;;;;12786131;23;20569;-80
2022/05/05 10:01:00;;;;;;;9.17;4.70;;;20.60;61.80;;;;;;12793638;23;20167;-80
2022/05/05 10:06:03;;;;;;;9.35;4.70;;;21.00;57.00;;;;;;12792298;23;20184;-79
2022/05/05 10:11:09;;;;;;;7.90;4.70;;;21.00;62.30;;;;;;12791159;23;20168;-79
2022/05/05 10:16:15;;;;;;;6.28;4.28;;;20.90;58.40;;;;;;12799170;23;20176;-78
2022/05/05 10:21:55;;;;;;;15.32;6.55;;;20.90;61.70;;;;;;12765375;23;20214;-79
2022/05/05 10:27:03;;;;;;;8.10;5.70;;;20.80;58.50;;;;;;12765729;23;20590;-78
2022/05/05 10:32:20;;;;;;;11.13;5.13;;;20.90;58.60;;;;;;12765984;23;20171;-78
2022/05/05 10:37:32;;;;;;;7.60;6.40;;;21.20;59.80;;;;;;12809235;23;20492;-78
2022/05/05 10:42:40;;;;;;;8.20;6.90;;;21.20;59.90;;;;;;12798037;23;20239;-78
2022/05/05 10:47:52;;;;;;;6.82;4.15;;;21.40;57.50;;;;;;12792690;23;20180;-78
2022/05/05 10:52:55;;;;;;;16.50;5.35;;;21.60;60.30;;;;;;12792646;23;20561;-77
2022/05/05 10:57:58;;;;;;;8.20;4.40;;;21.40;58.90;;;;;;12791615;23;20171;-78
2022/05/05 11:03:00;;;;;;;6.20;3.50;;;21.70;59.10;;;;;;12791176;23;20511;-78
2022/05/05 11:08:10;;;;;;;4.67;3.67;;;21.70;60.00;;;;;;12789615;23;20525;-78
2022/05/05 11:13:31;;;;;;;11.15;6.35;;;21.90;58.70;;;;;;12763511;23;20203;-77
2022/05/05 11:24:10;;;;;;;10.65;6.70;;;21.80;57.40;;;;;;12809886;23;20175;-76
2022/05/05 11:29:16;;;;;;;4.35;3.25;;;21.80;57.20;;;;;;12786306;23;20192;-77
2022/05/05 11:34:21;;;;;;;22.88;6.95;;;21.70;58.80;;;;;;12758677;23;20238;-76
2022/05/05 11:39:23;;;;;;;10.57;6.70;;;21.90;54.70;;;;;;12758261;23;20179;-76
2022/05/05 11:44:27;;;;;;;5.93;4.38;;;22.20;56.90;;;;;;12758679;23;20262;-77
2022/05/05 11:49:35;;;;;;;7.57;4.57;;;22.10;58.10;;;;;;12759186;23;20199;-77
2022/05/05 11:54:38;;;;;;;51.25;9.38;;;21.80;58.70;;;;;;12802201;23;20168;-77
2022/05/05 12:05:14;;;;;;;7.30;6.50;;;21.70;57.20;;;;;;12808508;23;20175;-78
2022/05/05 12:10:17;;;;;;;42.50;8.02;;;22.10;54.60;;;;;;12763495;23;20191;-77
2022/05/05 12:15:24;;;;;;;8.63;6.43;;;22.10;55.90;;;;;;12763274;23;20253;-77
2022/05/05 12:20:30;;;;;;;5.95;5.32;;;22.40;54.10;;;;;;12782365;23;20171;-77
2022/05/05 12:25:33;;;;;;;6.10;4.55;;;22.50;55.60;;;;;;12809416;23;20199;-78
2022/05/05 12:30:40;;;;;;;10.05;6.22;;;22.40;57.60;;;;;;12765277;23;20246;-78
2022/05/05 12:35:44;;;;;;;4.43;3.50;;;22.20;54.00;;;;;;12807868;23;20199;-77
2022/05/05 12:41:06;;;;;;;3.47;3.08;;;21.50;59.60;;;;;;12789714;23;20195;-78
2022/05/05 12:46:08;;;;;;;17.02;6.50;;;21.30;60.20;;;;;;12766079;23;20271;-78
2022/05/05 12:51:17;;;;;;;10.68;6.00;;;21.60;54.10;;;;;;12742387;23;20195;-78
2022/05/05 13:01:41;;;;;;;13.95;6.03;;;;;;;;;;12800545;23;20227;-78
2022/05/05 13:06:48;;;;;;;18.33;7.85;;;21.80;55.00;;;;;;12767053;23;20196;-79
2022/05/05 13:11:52;;;;;;;10.02;7.53;;;21.30;61.20;;;;;;12793239;23;20167;-79
2022/05/05 13:16:55;;;;;;;12.05;7.68;;;20.80;62.30;;;;;;12767424;23;20176;-79
2022/05/05 13:21:59;;;;;;;16.52;8.07;;;20.60;62.30;;;;;;12794371;23;20234;-79
2022/05/05 13:27:02;;;;;;;14.48;7.15;;;20.40;61.90;;;;;;12794067;23;20192;-78
2022/05/05 13:32:05;;;;;;;14.75;7.45;;;20.20;62.80;;;;;;12792376;23;20172;-79
2022/05/05 13:37:10;;;;;;;11.20;6.50;;;20.20;62.00;;;;;;12767872;23;20176;-77
2022/05/05 13:42:14;;;;;;;13.35;6.50;;;20.30;60.30;;;;;;12802458;23;20245;-77
2022/05/05 13:47:16;;;;;;;12.03;6.63;;;20.20;60.50;;;;;;12793790;23;20184;-77
2022/05/05 13:52:19;;;;;;;8.55;6.70;;;20.20;60.90;;;;;;12794211;23;20195;-77
2022/05/05 13:57:21;;;;;;;12.18;6.70;;;20.30;61.40;;;;;;12767770;23;20171;-76
2022/05/05 14:02:24;;;;;;;8.90;7.13;;;20.10;64.30;;;;;;12766126;23;20662;-78
2022/05/05 14:12:48;;;;;;;13.07;8.38;;;20.20;65.20;;;;;;12812649;23;20167;-79
2022/05/05 14:17:50;;;;;;;17.57;8.60;;;20.40;65.00;;;;;;12766203;23;20257;-79
2022/05/05 14:22:53;;;;;;;8.13;6.43;;;20.40;65.00;;;;;;12793803;23;20276;-78
2022/05/05 14:27:55;;;;;;;7.45;6.60;;;20.80;64.60;;;;;;12767501;23;20196;-79
2022/05/05 14:32:58;;;;;;;8.85;6.45;;;21.00;64.30;;;;;;12767509;23;20167;-78
2022/05/05 14:38:03;;;;;;;9.25;7.28;;;20.90;63.80;;;;;;12810405;23;20175;-79
2022/05/05 14:43:05;;;;;;;11.65;8.18;;;20.70;63.80;;;;;;12792301;23;20192;-80
2022/05/05 14:48:09;;;;;;;12.68;7.63;;;20.50;64.70;;;;;;12793344;23;20237;-81
2022/05/05 14:53:12;;;;;;;10.13;7.38;;;20.50;65.10;;;;;;12763989;23;20175;-80
2022/05/05 14:58:14;;;;;;;10.73;5.07;;;20.40;64.70;;;;;;12793353;23;20642;-81
2022/05/05 15:03:17;;;;;;;10.07;6.53;;;20.20;66.00;;;;;;12764203;23;20246;-80
2022/05/05 15:08:20;;;;;;;8.90;8.00;;;19.80;64.60;;;;;;12765222;23;20254;-78
2022/05/05 15:13:22;;;;;;;11.32;7.35;;;19.50;66.10;;;;;;12793142;23;20230;-78
2022/05/05 15:18:29;;;;;;;6.03;5.40;;;19.20;67.40;;;;;;12810344;23;20168;-78
2022/05/05 15:23:32;;;;;;;5.75;5.22;;;19.40;67.90;;;;;;12792827;23;20168;-78
2022/05/05 15:28:34;;;;;;;8.67;6.40;;;19.60;67.30;;;;;;12792396;23;20549;-77
2022/05/05 15:33:37;;;;;;;9.20;6.27;;;19.50;67.50;;;;;;12791294;23;20791;-78
2022/05/05 15:38:39;;;;;;;5.33;4.93;;;19.50;67.80;;;;;;12792881;23;20495;-77
2022/05/05 15:43:42;;;;;;;15.70;11.17;;;19.70;67.40;;;;;;12791075;23;20541;-78
2022/05/05 15:48:46;;;;;;;8.77;6.33;;;19.50;71.60;;;;;;12810147;23;20188;-78
2022/05/05 15:53:48;;;;;;;15.63;10.97;;;19.20;69.80;;;;;;12792240;23;20167;-78
2022/05/05 15:58:51;;;;;;;12.25;10.15;;;19.00;76.70;;;;;;12791688;23;20175;-79
2022/05/05 16:03:59;;;;;;;16.37;9.40;;;18.70;75.80;;;;;;12809736;23;20542;-77
2022/05/05 16:09:09;;;;;;;15.43;7.77;;;18.90;76.30;;;;;;12763198;23;20226;-78
2022/05/05 16:14:12;;;;;;;9.20;7.87;;;18.90;74.90;;;;;;12791956;23;20176;-78
2022/05/05 16:19:14;;;;;;;11.40;8.27;;;19.00;74.50;;;;;;12811791;23;20171;-80
2022/05/05 16:24:17;;;;;;;11.47;10.30;;;19.00;74.20;;;;;;12769261;23;20179;-81
2022/05/05 16:34:40;;;;;;;9.60;8.50;;;18.90;74.60;;;;;;12812596;23;20164;-77
2022/05/05 16:39:42;;;;;;;8.27;7.45;;;19.20;73.50;;;;;;12795587;23;20498;-78
2022/05/05 16:44:45;;;;;;;8.83;8.00;;;19.20;73.10;;;;;;12768878;23;20179;-78
2022/05/05 16:49:47;;;;;;;8.75;7.90;;;19.20;73.00;;;;;;12795465;23;20192;-79
2022/05/05 16:54:50;;;;;;;8.43;7.63;;;19.30;72.90;;;;;;12768955;23;20199;-77
2022/05/05 16:59:53;;;;;;;7.43;6.80;;;19.20;72.90;;;;;;12795238;23;20492;-78
2022/05/05 17:04:56;;;;;;;7.90;7.20;;;19.20;72.70;;;;;;12794909;23;20207;-78
2022/05/05 17:09:58;;;;;;;9.30;7.30;;;19.20;72.70;;;;;;12767999;23;20253;-78
2022/05/05 17:15:01;;;;;;;8.63;7.47;;;18.90;76.70;;;;;;12768079;23;20235;-79
2022/05/05 17:20:05;;;;;;;13.93;12.17;;;19.00;74.80;;;;;;12794512;23;20171;-77
2022/05/05 17:25:08;;;;;;;7.05;6.45;;;18.00;84.60;;;;;;12767893;23;20218;-78
2022/05/05 17:30:11;;;;;;;8.77;7.97;;;18.70;76.00;;;;;;12794343;23;20530;-78
2022/05/05 17:35:14;;;;;;;8.10;6.90;;;18.80;75.40;;;;;;12794061;23;20168;-78
2022/05/05 17:40:17;;;;;;;8.73;7.77;;;18.70;75.30;;;;;;12793659;23;20196;-78
2022/05/05 17:50:40;;;;;;;12.17;10.73;;;15.90;94.10;;;;;;12810382;23;20195;-78
2022/05/05 17:55:43;;;;;;;14.90;12.27;;;15.50;95.50;;;;;;12766538;23;20206;-78
2022/05/05 18:00:48;;;;;;;12.73;11.33;;;15.20;98.90;;;;;;12793380;23;20171;-77
2022/05/05 18:05:51;;;;;;;11.73;10.53;;;15.90;95.50;;;;;;12767211;23;20545;-79
2022/05/05 18:10:54;;;;;;;13.07;11.70;;;16.00;95.10;;;;;;12766857;23;20529;-78
2022/05/05 18:15:58;;;;;;;14.43;12.40;;;14.80;99.90;;;;;;12767824;23;20483;-78
2022/05/05 18:21:01;;;;;;;9.23;8.30;;;14.80;99.90;;;;;;12767488;23;20175;-78
2022/05/05 18:26:11;;;;;;;12.67;11.40;;;14.50;99.90;;;;;;12810116;23;20246;-78
2022/05/05 18:31:13;;;;;;;18.50;13.87;;;14.40;99.90;;;;;;12766452;23;21033;-77
2022/05/05 18:36:17;;;;;;;17.23;12.27;;;14.50;99.90;;;;;;12793275;23;20642;-77
2022/05/05 18:41:20;;;;;;;18.10;13.93;;;14.60;99.90;;;;;;12792701;23;20195;-78
2022/05/05 18:46:22;;;;;;;10.57;9.43;;;14.30;99.90;;;;;;12767623;23;20179;-77
2022/05/05 18:51:25;;;;;;;24.10;14.00;;;14.10;99.90;;;;;;12793463;23;20191;-76
2022/05/05 18:56:28;;;;;;;12.60;10.00;;;14.10;99.90;;;;;;12785373;23;20199;-76
2022/05/05 19:01:31;;;;;;;16.83;10.97;;;14.50;99.90;;;;;;12766704;23;20638;-76
2022/05/05 19:06:33;;;;;;;15.87;12.87;;;14.70;99.90;;;;;;12793350;23;20174;-76
2022/05/05 19:11:36;;;;;;;19.40;13.90;;;14.60;99.90;;;;;;12792946;23;20199;-77
2022/05/05 19:16:40;;;;;;;20.80;14.23;;;14.40;99.90;;;;;;12766426;23;20187;-80
2022/05/05 19:21:43;;;;;;;17.57;13.67;;;14.50;99.90;;;;;;12792297;23;20176;-78
2022/05/05 19:26:45;;;;;;;16.83;12.77;;;14.40;99.90;;;;;;12764534;23;20178;-77
2022/05/05 19:31:48;;;;;;;17.73;12.50;;;13.70;99.90;;;;;;12792234;23;20246;-77
2022/05/05 19:36:50;;;;;;;15.60;13.83;;;13.90;99.90;;;;;;12764907;23;20168;-77
2022/05/05 19:41:53;;;;;;;18.83;14.00;;;13.40;99.90;;;;;;12764192;23;20213;-78
2022/05/05 19:46:55;;;;;;;15.23;12.87;;;13.50;99.90;;;;;;12764915;23;20238;-79
2022/05/05 19:51:58;;;;;;;18.17;14.63;;;13.80;99.90;;;;;;12791786;23;20515;-77
2022/05/05 20:02:22;;;;;;;13.93;12.03;;;14.10;99.90;;;;;;12791131;23;20177;-78
2022/05/05 20:07:24;;;;;;;14.53;12.73;;;13.90;99.90;;;;;;12791040;23;20230;-79
2022/05/05 20:12:27;;;;;;;10.27;8.70;;;14.40;99.90;;;;;;12764682;23;20188;-79
2022/05/05 20:17:29;;;;;;;20.10;14.53;;;13.70;99.90;;;;;;12764269;23;20198;-78
2022/05/05 20:22:32;;;;;;;16.37;13.83;;;13.80;99.90;;;;;;12791581;23;20171;-78
2022/05/05 20:27:55;;;;;;;16.90;12.87;;;14.00;99.90;;;;;;12807850;23;20175;-78
2022/05/05 20:32:57;;;;;;;12.23;10.93;;;14.60;99.90;;;;;;12790947;23;20188;-78
2022/05/05 20:38:00;;;;;;;11.67;10.43;;;14.10;99.90;;;;;;12764967;23;20188;-78
2022/05/05 20:43:03;;;;;;;11.97;10.53;;;14.00;99.90;;;;;;12791444;23;20196;-78
2022/05/05 20:48:06;;;;;;;12.03;10.83;;;14.00;99.90;;;;;;12764038;23;20184;-78
2022/05/05 20:53:08;;;;;;;12.53;10.90;;;14.30;99.90;;;;;;12808194;23;20635;-82
2022/05/05 20:58:11;;;;;;;19.70;12.70;;;14.10;99.90;;;;;;12790593;23;20164;-82
2022/05/05 21:03:14;;;;;;;7.53;6.83;;;13.60;99.90;;;;;;12789588;23;20184;-82
2022/05/05 21:08:17;;;;;;;13.23;10.60;;;13.90;99.90;;;;;;12794525;23;20191;-82
2022/05/05 21:13:20;;;;;;;10.70;9.00;;;13.90;99.90;;;;;;12767056;23;20249;-79
2022/05/05 21:18:22;;;;;;;16.97;11.30;;;13.70;99.90;;;;;;12771008;23;20235;-79
2022/05/05 21:28:46;;;;;;;12.53;10.43;;;13.40;99.90;;;;;;12792032;23;20549;-79
2022/05/05 21:33:49;;;;;;;17.53;11.17;;;13.60;99.90;;;;;;12767311;23;20205;-78
2022/05/05 21:38:51;;;;;;;15.23;11.30;;;13.30;99.90;;;;;;12796081;23;20517;-78
2022/05/05 21:43:54;;;;;;;14.93;10.53;;;13.40;99.90;;;;;;12768155;23;20199;-78
2022/05/05 21:48:57;;;;;;;16.93;11.67;;;13.10;99.90;;;;;;12765797;23;20222;-78
2022/05/05 21:53:59;;;;;;;6.60;6.00;;;12.90;99.90;;;;;;12794093;23;20166;-78
2022/05/05 21:59:02;;;;;;;11.30;8.93;;;13.90;99.90;;;;;;12765121;23;20240;-78
2022/05/05 22:04:04;;;;;;;11.57;9.90;;;14.10;99.90;;;;;;12785112;23;20176;-78
2022/05/05 22:09:07;;;;;;;11.47;8.87;;;13.50;99.90;;;;;;12766259;23;20662;-78
2022/05/05 22:14:10;;;;;;;12.27;10.20;;;14.00;99.90;;;;;;12767188;23;20166;-78
2022/05/05 22:19:12;;;;;;;13.20;9.97;;;13.20;99.90;;;;;;12793229;23;20174;-78
2022/05/05 22:24:15;;;;;;;15.47;10.77;;;13.30;99.90;;;;;;12793239;23;20172;-78
2022/05/05 22:29:17;;;;;;;7.40;6.70;;;13.20;99.90;;;;;;12765883;23;20202;-78
2022/05/05 22:34:20;;;;;;;19.00;10.60;;;12.70;99.90;;;;;;12792727;23;20169;-78
2022/05/05 22:39:22;;;;;;;15.73;10.37;;;13.60;99.90;;;;;;12639661;23;20177;-78
2022/05/05 22:44:25;;;;;;;13.10;10.73;;;13.00;99.90;;;;;;12664210;23;20405;-78
2022/05/05 22:54:48;;;;;;;7.23;6.53;;;12.80;99.90;;;;;;12639235;23;20195;-78
2022/05/05 22:59:50;;;;;;;8.70;7.27;;;13.30;99.90;;;;;;12667955;23;20181;-78
2022/05/05 23:04:54;;;;;;;6.97;6.30;;;13.80;99.90;;;;;;12663463;23;20200;-78
2022/05/05 23:09:56;;;;;;;13.33;9.50;;;13.40;99.90;;;;;;12744598;23;20187;-78
2022/05/05 23:14:59;;;;;;;9.13;8.23;;;13.40;99.90;;;;;;12781980;23;20168;-78
2022/05/05 23:20:13;;;;;;;10.50;8.53;;;12.70;99.90;;;;;;12792244;23;20170;-78
2022/05/05 23:25:16;;;;;;;15.37;8.73;;;;;;;;;;12740800;23;20570;-78
2022/05/05 23:30:19;;;;;;;12.33;9.20;;;12.20;99.90;;;;;;12764274;23;20244;-78
2022/05/05 23:40:42;;;;;;;8.87;6.73;;;11.90;99.90;;;;;;12807232;23;20195;-78
2022/05/05 23:45:45;;;;;;;9.83;7.87;;;12.10;99.90;;;;;;12765434;23;20218;-78
2022/05/05 23:51:41;;;;;;;10.03;8.73;;;12.00;99.90;;;;;;12809813;23;20258;-78
2022/05/05 23:56:11;;;;;;;8.50;7.53;;;11.80;99.90;;;;;;12793889;23;20558;-78
